createdAt,value
2018-04-29T00:00:03.743Z,99270.55
2018-04-29T00:02:31.430Z,99266.84
2018-04-29T00:04:59.037Z,99263.63
2018-04-29T00:07:26.705Z,99259.44
2018-04-29T00:09:54.260Z,99272.24
2018-04-29T00:12:21.947Z,99264.88
2018-04-29T00:14:49.512Z,99270.44
2018-04-29T00:17:17.378Z,99274.28
2018-04-29T00:19:44.987Z,99283.59
2018-04-29T00:22:12.716Z,99279.92
2018-04-29T00:24:40.284Z,99275.25
2018-04-29T00:27:08.024Z,99282.72
2018-04-29T00:29:35.769Z,99277.72
2018-04-29T00:32:03.326Z,99274.03
2018-04-29T00:34:30.886Z,99274.95
2018-04-29T00:36:58.448Z,99275.61
2018-04-29T00:39:26.232Z,99277.66
2018-04-29T00:41:53.840Z,99272.67
2018-04-29T00:44:21.467Z,99266.34
2018-04-29T00:46:49.195Z,99273.88
2018-04-29T00:49:17.014Z,99274.30
2018-04-29T00:51:56.408Z,99273.73
2018-04-29T00:54:23.978Z,99275.29
2018-04-29T00:56:51.562Z,99266.36
2018-04-29T00:59:19.378Z,99269.74
2018-04-29T01:01:46.966Z,99264.09
2018-04-29T01:04:14.529Z,99270.66
2018-04-29T01:06:42.112Z,99269.20
2018-04-29T01:09:09.900Z,99276.02
2018-04-29T01:11:37.613Z,99266.33
2018-04-29T01:14:05.216Z,99269.36
2018-04-29T01:16:32.953Z,99264.61
2018-04-29T01:19:00.553Z,99266.59
2018-04-29T01:21:28.112Z,99269.63
2018-04-29T01:23:55.724Z,99268.80
2018-04-29T01:26:23.289Z,99262.50
2018-04-29T01:28:50.963Z,99261.52
2018-04-29T01:31:18.525Z,99268.80
2018-04-29T01:33:46.084Z,99275.98
2018-04-29T01:36:13.673Z,99277.70
2018-04-29T01:38:41.417Z,99276.35
2018-04-29T01:41:09.235Z,99273.23
2018-04-29T01:43:37.052Z,99269.16
2018-04-29T01:46:04.652Z,99272.31
2018-04-29T01:48:32.271Z,99262.63
2018-04-29T01:50:59.925Z,99259.83
2018-04-29T01:53:27.496Z,99259.84
2018-04-29T01:55:55.322Z,99252.45
2018-04-29T01:58:22.908Z,99253.91
2018-04-29T02:00:51.201Z,99258.01
2018-04-29T02:03:18.760Z,99254.72
2018-04-29T02:05:46.496Z,99260.34
2018-04-29T02:08:14.079Z,99258.02
2018-04-29T02:10:41.658Z,99255.27
2018-04-29T02:13:09.366Z,99261.31
2018-04-29T02:15:37.090Z,99254.66
2018-04-29T02:18:04.910Z,99262.17
2018-04-29T02:20:32.727Z,99264.63
2018-04-29T02:23:00.547Z,99256.89
2018-04-29T02:25:28.156Z,99254.53
2018-04-29T02:27:55.774Z,99261.39
2018-04-29T02:30:23.333Z,99262.29
2018-04-29T02:32:51.123Z,99254.42
2018-04-29T02:35:18.853Z,99245.02
2018-04-29T02:37:46.655Z,99253.77
2018-04-29T02:40:14.234Z,99251.94
2018-04-29T02:42:41.991Z,99255.59
2018-04-29T02:45:09.701Z,99258.84
2018-04-29T02:47:37.241Z,99264.97
2018-04-29T02:50:05.053Z,99253.55
2018-04-29T02:52:32.865Z,99254.30
2018-04-29T02:55:00.598Z,99261.09
2018-04-29T02:57:28.203Z,99259.99
2018-04-29T02:59:56.020Z,99256.84
2018-04-29T03:02:23.658Z,99260.81
2018-04-29T03:04:51.281Z,99251.30
2018-04-29T03:07:18.841Z,99256.33
2018-04-29T03:09:46.418Z,99252.08
2018-04-29T03:12:14.106Z,99252.23
2018-04-29T03:14:42.110Z,99256.89
2018-04-29T03:17:09.749Z,99241.34
2018-04-29T03:19:37.402Z,99263.78
2018-04-29T03:22:05.035Z,99256.58
2018-04-29T03:24:32.610Z,99251.08
2018-04-29T03:27:00.332Z,99257.09
2018-04-29T03:29:28.141Z,99249.88
2018-04-29T03:31:55.720Z,99256.17
2018-04-29T03:34:23.292Z,99260.98
2018-04-29T03:36:51.091Z,99256.80
2018-04-29T03:39:18.911Z,99263.97
2018-04-29T03:41:46.555Z,99267.25
2018-04-29T03:44:14.347Z,99269.55
2018-04-29T03:46:42.023Z,99273.69
2018-04-29T03:49:09.576Z,99271.89
2018-04-29T03:51:37.193Z,99274.49
2018-04-29T03:54:05.020Z,99272.42
2018-04-29T03:56:32.838Z,99270.70
2018-04-29T03:59:12.070Z,99278.89
2018-04-29T04:01:51.733Z,99280.84
2018-04-29T04:04:19.356Z,99273.30
2018-04-29T04:06:46.931Z,99278.96
2018-04-29T04:09:14.564Z,99280.53
2018-04-29T04:11:42.220Z,99276.40
2018-04-29T04:14:09.821Z,99279.97
2018-04-29T04:16:37.444Z,99286.03
2018-04-29T04:19:05.125Z,99288.09
2018-04-29T04:21:32.740Z,99293.17
2018-04-29T04:24:00.353Z,99288.16
2018-04-29T04:26:28.139Z,99292.05
2018-04-29T04:28:55.703Z,99291.53
2018-04-29T04:31:23.397Z,99285.24
2018-04-29T04:33:51.020Z,99293.67
2018-04-29T04:36:18.597Z,99292.78
2018-04-29T04:38:46.349Z,99295.78
2018-04-29T04:41:14.152Z,99296.83
2018-04-29T04:43:41.964Z,99298.59
2018-04-29T04:46:09.613Z,99301.37
2018-04-29T04:48:37.194Z,99308.65
2018-04-29T04:51:04.725Z,99304.77
2018-04-29T04:53:32.289Z,99300.53
2018-04-29T04:55:59.875Z,99302.64
2018-04-29T04:58:27.654Z,99307.02
2018-04-29T05:00:55.241Z,99306.06
2018-04-29T05:03:22.997Z,99309.84
2018-04-29T05:05:50.560Z,99311.22
2018-04-29T05:08:18.236Z,99305.91
2018-04-29T05:10:46.064Z,99305.77
2018-04-29T05:13:13.700Z,99308.38
2018-04-29T05:15:41.391Z,99308.19
2018-04-29T05:18:09.155Z,99303.45
2018-04-29T05:20:36.728Z,99306.45
2018-04-29T05:23:04.479Z,99304.11
2018-04-29T05:25:32.051Z,99295.09
2018-04-29T05:27:59.702Z,99297.36
2018-04-29T05:30:27.280Z,99288.62
2018-04-29T05:32:54.845Z,99286.96
2018-04-29T05:35:22.445Z,99275.58
2018-04-29T05:37:50.162Z,99285.73
2018-04-29T05:40:17.804Z,99282.55
2018-04-29T05:42:45.599Z,99285.97
2018-04-29T05:45:13.228Z,99286.17
2018-04-29T05:47:40.841Z,99284.61
2018-04-29T05:50:08.396Z,99275.19
2018-04-29T05:52:35.948Z,99284.87
2018-04-29T05:55:03.605Z,99277.71
2018-04-29T05:57:31.174Z,99277.69
2018-04-29T05:59:58.925Z,99272.76
2018-04-29T06:02:26.748Z,99273.95
2018-04-29T06:04:54.353Z,99279.65
2018-04-29T06:07:21.979Z,99278.44
2018-04-29T06:09:49.531Z,99279.44
2018-04-29T06:12:17.082Z,99273.22
2018-04-29T06:14:44.713Z,99275.62
2018-04-29T06:17:12.274Z,99271.86
2018-04-29T06:19:40.071Z,99266.66
2018-04-29T06:22:07.889Z,99262.45
2018-04-29T06:24:35.609Z,99270.09
2018-04-29T06:27:03.228Z,99264.31
2018-04-29T06:29:31.047Z,99265.38
2018-04-29T06:31:58.694Z,99264.81
2018-04-29T06:34:26.243Z,99268.86
2018-04-29T06:36:53.959Z,99268.34
2018-04-29T06:39:21.561Z,99270.35
2018-04-29T06:41:49.118Z,99268.04
2018-04-29T06:44:16.798Z,99266.02
2018-04-29T06:46:44.339Z,99268.23
2018-04-29T06:49:11.947Z,99266.44
2018-04-29T06:51:39.541Z,99268.72
2018-04-29T06:54:07.324Z,99271.61
2018-04-29T06:56:35.142Z,99266.35
2018-04-29T06:59:02.717Z,99265.88
2018-04-29T07:01:30.583Z,99263.98
2018-04-29T07:03:58.398Z,99268.25
2018-04-29T07:06:26.091Z,99270.82
2018-04-29T07:08:53.937Z,99278.86
2018-04-29T07:11:21.708Z,99279.55
2018-04-29T07:13:49.339Z,99276.16
2018-04-29T07:16:16.912Z,99283.30
2018-04-29T07:18:44.752Z,99288.00
2018-04-29T07:21:12.451Z,99288.30
2018-04-29T07:23:40.031Z,99288.30
2018-04-29T07:26:07.795Z,99294.38
2018-04-29T07:28:35.336Z,99292.18
2018-04-29T07:31:02.933Z,99292.22
2018-04-29T07:33:30.939Z,99294.13
2018-04-29T07:35:58.737Z,99289.50
2018-04-29T07:38:26.653Z,99281.28
2018-04-29T07:40:54.476Z,99285.66
2018-04-29T07:43:22.398Z,99289.73
2018-04-29T07:45:50.212Z,99288.62
2018-04-29T07:48:17.850Z,99288.53
2018-04-29T07:50:45.439Z,99290.84
2018-04-29T07:53:13.056Z,99289.14
2018-04-29T07:55:40.637Z,99279.98
2018-04-29T07:58:08.586Z,99263.11
2018-04-29T08:00:36.321Z,99286.24
2018-04-29T08:03:03.979Z,99280.59
2018-04-29T08:05:31.528Z,99287.38
2018-04-29T08:07:59.241Z,99285.23
2018-04-29T08:10:26.885Z,99286.16
2018-04-29T08:12:54.445Z,99282.70
2018-04-29T08:15:22.028Z,99282.34
2018-04-29T08:17:49.686Z,99283.40
2018-04-29T08:20:17.244Z,99282.50
2018-04-29T08:22:44.875Z,99288.53
2018-04-29T08:25:12.447Z,99284.63
2018-04-29T08:27:40.219Z,99282.33
2018-04-29T08:30:07.945Z,99284.36
2018-04-29T08:32:35.580Z,99283.53
2018-04-29T08:35:03.205Z,99280.97
2018-04-29T08:37:30.755Z,99279.91
2018-04-29T08:39:58.513Z,99284.76
2018-04-29T08:42:26.081Z,99282.76
2018-04-29T08:44:53.638Z,99277.08
2018-04-29T08:47:21.464Z,99286.54
2018-04-29T08:49:49.028Z,99278.92
2018-04-29T08:52:16.602Z,99271.81
2018-04-29T08:54:44.188Z,99268.74
2018-04-29T08:57:11.740Z,99270.75
2018-04-29T08:59:39.364Z,99271.84
2018-04-29T09:02:06.937Z,99265.91
2018-04-29T09:04:35.355Z,99268.22
2018-04-29T09:07:02.955Z,99264.98
2018-04-29T09:09:30.515Z,99266.98
2018-04-29T09:11:58.448Z,99263.52
2018-04-29T09:14:26.004Z,99261.98
2018-04-29T09:16:53.857Z,99260.27
2018-04-29T09:19:21.393Z,99248.94
2018-04-29T09:21:48.958Z,99255.27
2018-04-29T09:24:16.681Z,99250.44
2018-04-29T09:26:44.255Z,99251.37
2018-04-29T09:29:12.076Z,99243.15
2018-04-29T09:31:39.732Z,99237.31
2018-04-29T09:34:07.405Z,99236.94
2018-04-29T09:36:34.993Z,99225.67
2018-04-29T09:39:02.540Z,99226.41
2018-04-29T09:41:30.105Z,99230.03
2018-04-29T09:43:57.743Z,99229.55
2018-04-29T09:46:25.329Z,99220.12
2018-04-29T09:48:53.025Z,99215.41
2018-04-29T09:51:20.589Z,99209.75
2018-04-29T09:53:48.152Z,99204.59
2018-04-29T09:56:15.722Z,99204.41
2018-04-29T09:58:43.273Z,99200.36
2018-04-29T10:01:16.563Z,99194.55
2018-04-29T10:03:44.345Z,99190.69
2018-04-29T10:06:11.941Z,99187.20
2018-04-29T10:08:39.500Z,99190.68
2018-04-29T10:11:07.088Z,99182.31
2018-04-29T10:13:34.747Z,99192.73
2018-04-29T10:16:02.537Z,99186.91
2018-04-29T10:18:30.101Z,99181.89
2018-04-29T10:20:57.871Z,99173.71
2018-04-29T10:23:25.420Z,99179.49
2018-04-29T10:25:53.035Z,99175.12
2018-04-29T10:28:20.829Z,99170.41
2018-04-29T10:30:48.396Z,99163.30
2018-04-29T10:33:16.053Z,99164.48
2018-04-29T10:35:43.623Z,99161.69
2018-04-29T10:38:11.241Z,99166.50
2018-04-29T10:40:38.805Z,99155.44
2018-04-29T10:43:06.420Z,99159.33
2018-04-29T10:45:34.053Z,99162.53
2018-04-29T10:48:01.606Z,99157.17
2018-04-29T10:50:29.231Z,99159.28
2018-04-29T10:52:56.788Z,99163.02
2018-04-29T10:55:24.467Z,99159.94
2018-04-29T10:57:52.285Z,99161.44
2018-04-29T11:00:19.820Z,99146.77
2018-04-29T11:02:47.477Z,99150.15
2018-04-29T11:05:15.033Z,99145.45
2018-04-29T11:07:42.604Z,99147.45
2018-04-29T11:10:10.356Z,99154.84
2018-04-29T11:12:37.908Z,99141.38
2018-04-29T11:15:05.714Z,99141.93
2018-04-29T11:17:33.272Z,99137.11
2018-04-29T11:20:01.050Z,99135.35
2018-04-29T11:22:28.671Z,99128.19
2018-04-29T11:24:56.262Z,99129.45
2018-04-29T11:27:23.980Z,99132.43
2018-04-29T11:29:51.601Z,99124.70
2018-04-29T11:32:19.166Z,99118.38
2018-04-29T11:34:46.727Z,99119.73
2018-04-29T11:37:14.280Z,99123.27
2018-04-29T11:39:42.092Z,99122.52
2018-04-29T11:42:09.660Z,99117.63
2018-04-29T11:44:37.429Z,99108.67
2018-04-29T11:47:04.992Z,99104.41
2018-04-29T11:49:32.541Z,99102.13
2018-04-29T11:52:00.174Z,99090.69
2018-04-29T11:54:27.770Z,99097.70
2018-04-29T11:56:55.518Z,99084.19
2018-04-29T11:59:23.337Z,99088.89
2018-04-29T12:01:50.946Z,99091.19
2018-04-29T12:04:18.545Z,99084.56
2018-04-29T12:06:46.086Z,99092.30
2018-04-29T12:09:13.632Z,99085.51
2018-04-29T12:11:41.427Z,99087.07
2018-04-29T12:14:08.980Z,99077.97
2018-04-29T12:16:36.617Z,99074.79
2018-04-29T12:19:04.382Z,99071.52
2018-04-29T12:21:31.940Z,99082.72
2018-04-29T12:23:59.508Z,99073.30
2018-04-29T12:26:27.336Z,99068.94
2018-04-29T12:28:54.950Z,99060.06
2018-04-29T12:31:22.522Z,99065.45
2018-04-29T12:33:50.109Z,99056.98
2018-04-29T12:36:17.678Z,99055.68
2018-04-29T12:38:45.250Z,99049.27
2018-04-29T12:41:13.043Z,99048.04
2018-04-29T12:43:40.651Z,99042.91
2018-04-29T12:46:08.480Z,99045.94
2018-04-29T12:48:36.041Z,99038.94
2018-04-29T12:51:03.625Z,99030.81
2018-04-29T12:53:31.244Z,99031.67
2018-04-29T12:55:58.830Z,99023.04
2018-04-29T12:58:26.455Z,99023.80
2018-04-29T13:00:54.001Z,99023.46
2018-04-29T13:03:21.805Z,99016.16
2018-04-29T13:05:49.625Z,99017.59
2018-04-29T13:08:17.181Z,99005.10
2018-04-29T13:10:44.736Z,99012.03
2018-04-29T13:13:12.297Z,99000.41
2018-04-29T13:15:39.865Z,99004.39
2018-04-29T13:18:07.485Z,99003.14
2018-04-29T13:20:35.051Z,99001.04
2018-04-29T13:23:02.623Z,99005.81
2018-04-29T13:25:30.245Z,99000.44
2018-04-29T13:27:57.803Z,99000.13
2018-04-29T13:30:25.412Z,98999.74
2018-04-29T13:32:52.986Z,98990.02
2018-04-29T13:35:20.619Z,98993.62
2018-04-29T13:37:48.254Z,98990.16
2018-04-29T13:40:15.811Z,98987.24
2018-04-29T13:42:43.435Z,98978.70
2018-04-29T13:45:11.000Z,98980.54
2018-04-29T13:47:38.723Z,98980.38
2018-04-29T13:50:06.546Z,98981.55
2018-04-29T13:52:34.160Z,98984.77
2018-04-29T13:55:01.785Z,98980.95
2018-04-29T13:57:29.501Z,98982.13
2018-04-29T13:59:57.322Z,98974.98
2018-04-29T14:02:24.944Z,98986.67
2018-04-29T14:04:52.597Z,98981.98
2018-04-29T14:07:20.234Z,98973.20
2018-04-29T14:09:47.840Z,98982.66
2018-04-29T14:12:15.527Z,98974.70
2018-04-29T14:14:43.092Z,98968.55
2018-04-29T14:17:10.649Z,98971.23
2018-04-29T14:19:38.465Z,98971.27
2018-04-29T14:22:06.040Z,98964.16
2018-04-29T14:24:33.791Z,98961.73
2018-04-29T14:27:01.521Z,98960.91
2018-04-29T14:29:29.081Z,98960.87
2018-04-29T14:31:56.692Z,98954.20
2018-04-29T14:34:24.362Z,98962.80
2018-04-29T14:36:51.929Z,98961.56
2018-04-29T14:39:19.680Z,98958.98
2018-04-29T14:41:47.556Z,98958.53
2018-04-29T14:44:15.511Z,98962.18
2018-04-29T14:46:43.091Z,98961.65
2018-04-29T14:49:10.783Z,98957.78
2018-04-29T14:51:38.901Z,98945.23
2018-04-29T14:54:07.228Z,98956.28
2018-04-29T14:56:34.833Z,98943.59
2018-04-29T14:59:02.589Z,98947.41
2018-04-29T15:01:30.350Z,98941.95
2018-04-29T15:03:57.991Z,98938.44
2018-04-29T15:06:25.564Z,98938.84
2018-04-29T15:08:53.152Z,98936.22
2018-04-29T15:11:20.728Z,98940.39
2018-04-29T15:13:48.498Z,98936.36
2018-04-29T15:16:16.317Z,98935.19
2018-04-29T15:18:55.748Z,98933.55
2018-04-29T15:21:23.365Z,98933.20
2018-04-29T15:23:50.931Z,98923.61
2018-04-29T15:26:18.500Z,98929.92
2018-04-29T15:28:46.941Z,98924.30
2018-04-29T15:31:14.496Z,98924.97
2018-04-29T15:33:42.104Z,98913.91
2018-04-29T15:36:10.567Z,98918.68
2018-04-29T15:38:39.813Z,98926.67
2018-04-29T15:41:07.551Z,98925.55
2018-04-29T15:43:35.272Z,98917.44
2018-04-29T15:46:03.440Z,98922.81
2018-04-29T15:48:31.000Z,98915.94
2018-04-29T15:50:58.599Z,98922.67
2018-04-29T15:53:26.159Z,98918.39
2018-04-29T15:55:53.727Z,98923.84
2018-04-29T15:58:21.580Z,98916.24
2018-04-29T16:00:49.139Z,98921.13
2018-04-29T16:03:16.924Z,98922.52
2018-04-29T16:05:44.732Z,98923.14
2018-04-29T16:08:12.311Z,98922.09
2018-04-29T16:10:40.141Z,98916.80
2018-04-29T16:13:07.848Z,98926.37
2018-04-29T16:15:35.448Z,98927.31
2018-04-29T16:18:02.989Z,98925.49
2018-04-29T16:20:30.548Z,98931.07
2018-04-29T16:22:58.359Z,98928.11
2018-04-29T16:25:25.921Z,98933.87
2018-04-29T16:27:53.701Z,98928.20
2018-04-29T16:30:21.279Z,98936.65
2018-04-29T16:32:48.840Z,98932.11
2018-04-29T16:35:16.649Z,98932.97
2018-04-29T16:37:44.467Z,98927.58
2018-04-29T16:40:12.020Z,98928.25
2018-04-29T16:42:39.777Z,98932.95
2018-04-29T16:45:07.352Z,98934.14
2018-04-29T16:47:34.968Z,98942.09
2018-04-29T16:50:02.636Z,98944.51
2018-04-29T16:52:30.275Z,98950.45
2018-04-29T16:54:57.844Z,98950.50
2018-04-29T16:57:25.612Z,98955.98
2018-04-29T16:59:53.374Z,98956.94
2018-04-29T17:02:20.930Z,98966.08
2018-04-29T17:04:48.480Z,98969.69
2018-04-29T17:07:16.288Z,98966.18
2018-04-29T17:09:43.845Z,98970.95
2018-04-29T17:12:11.468Z,98964.75
2018-04-29T17:14:39.032Z,98965.75
2018-04-29T17:17:06.684Z,98969.01
2018-04-29T17:19:34.476Z,98970.53
2018-04-29T17:22:02.055Z,98968.70
2018-04-29T17:24:29.889Z,98972.37
2018-04-29T17:26:57.448Z,98976.04
2018-04-29T17:29:25.067Z,98978.56
2018-04-29T17:31:52.609Z,98978.54
2018-04-29T17:34:20.484Z,98982.91
2018-04-29T17:36:48.172Z,98981.81
2018-04-29T17:39:15.762Z,98988.62
2018-04-29T17:41:44.041Z,98984.95
2018-04-29T17:44:12.462Z,98990.62
2018-04-29T17:46:40.075Z,98988.26
2018-04-29T17:49:08.236Z,98993.30
2018-04-29T17:51:36.019Z,99001.30
2018-04-29T17:54:03.680Z,99001.87
2018-04-29T17:56:31.455Z,99012.20
2018-04-29T17:58:59.031Z,99012.96
2018-04-29T18:01:26.972Z,99018.45
2018-04-29T18:03:54.710Z,99013.17
2018-04-29T18:06:22.254Z,99024.61
2018-04-29T18:08:50.047Z,99031.46
2018-04-29T18:11:18.057Z,99031.70
2018-04-29T18:13:45.674Z,99008.95
2018-04-29T18:16:13.502Z,99034.23
2018-04-29T18:18:41.061Z,99037.83
2018-04-29T18:21:09.253Z,99047.93
2018-04-29T18:23:37.360Z,99050.99
2018-04-29T18:26:04.996Z,99054.99
2018-04-29T18:28:32.564Z,99061.56
2018-04-29T18:31:00.245Z,99069.32
2018-04-29T18:33:27.837Z,99061.14
2018-04-29T18:35:55.394Z,99068.75
2018-04-29T18:38:24.149Z,99064.56
2018-04-29T18:40:51.777Z,99075.44
2018-04-29T18:43:19.401Z,99074.97
2018-04-29T18:45:47.006Z,99078.24
2018-04-29T18:48:15.448Z,99080.48
2018-04-29T18:50:43.252Z,99078.30
2018-04-29T18:53:10.971Z,99084.09
2018-04-29T18:55:38.693Z,99083.86
2018-04-29T18:58:06.316Z,99082.17
2018-04-29T19:00:33.872Z,99085.13
2018-04-29T19:03:01.707Z,99079.08
2018-04-29T19:05:41.118Z,99087.76
2018-04-29T19:08:08.903Z,99086.52
2018-04-29T19:10:36.606Z,99085.39
2018-04-29T19:13:04.660Z,99082.70
2018-04-29T19:15:32.280Z,99085.45
2018-04-29T19:18:00.125Z,99090.17
2018-04-29T19:20:27.822Z,99087.25
2018-04-29T19:22:55.646Z,99089.49
2018-04-29T19:25:23.200Z,99077.70
2018-04-29T19:27:50.777Z,99084.36
2018-04-29T19:30:18.489Z,99084.94
2018-04-29T19:32:46.317Z,99080.30
2018-04-29T19:35:14.939Z,99076.94
2018-04-29T19:37:42.509Z,99069.06
2018-04-29T19:40:10.145Z,99046.28
2018-04-29T19:42:38.595Z,99079.05
2018-04-29T19:45:06.315Z,99075.34
2018-04-29T19:47:34.012Z,99079.46
2018-04-29T19:50:01.734Z,99077.26
2018-04-29T19:52:29.681Z,99076.58
2018-04-29T19:54:57.306Z,99072.64
2018-04-29T19:57:24.873Z,99071.81
2018-04-29T19:59:52.722Z,99069.25
2018-04-29T20:02:20.543Z,99069.95
2018-04-29T20:04:48.253Z,99063.63
2018-04-29T20:07:16.085Z,99063.55
2018-04-29T20:09:43.641Z,99064.16
2018-04-29T20:12:11.493Z,99061.14
2018-04-29T20:14:39.100Z,99060.52
2018-04-29T20:17:06.688Z,99063.94
2018-04-29T20:19:34.302Z,99063.11
2018-04-29T20:22:01.891Z,99057.72
2018-04-29T20:24:29.569Z,99064.41
2018-04-29T20:26:57.226Z,99061.72
2018-04-29T20:29:24.939Z,99058.55
2018-04-29T20:31:52.528Z,99055.27
2018-04-29T20:34:20.084Z,99053.75
2018-04-29T20:36:47.901Z,99048.26
2018-04-29T20:39:15.529Z,99053.01
2018-04-29T20:41:43.334Z,99051.70
2018-04-29T20:44:10.903Z,99055.22
2018-04-29T20:46:38.490Z,99049.28
2018-04-29T20:49:06.192Z,99050.98
2018-04-29T20:51:33.880Z,99041.63
2018-04-29T20:54:01.422Z,99046.94
2018-04-29T20:56:29.060Z,99041.59
2018-04-29T20:58:56.762Z,99043.25
2018-04-29T21:01:24.519Z,99043.48
2018-04-29T21:03:52.132Z,99039.97
2018-04-29T21:06:19.723Z,99031.05
2018-04-29T21:08:47.376Z,99039.51
2018-04-29T21:11:14.945Z,99034.39
2018-04-29T21:13:42.654Z,99036.88
2018-04-29T21:16:11.190Z,99038.13
2018-04-29T21:18:38.768Z,99030.12
2018-04-29T21:21:06.361Z,99041.00
2018-04-29T21:23:33.921Z,99042.24
2018-04-29T21:26:01.757Z,99044.39
2018-04-29T21:28:29.352Z,99043.48
2018-04-29T21:30:56.911Z,99043.83
2018-04-29T21:33:24.486Z,99046.05
2018-04-29T21:35:52.065Z,99040.23
2018-04-29T21:38:19.672Z,99043.52
2018-04-29T21:40:47.260Z,99037.83
2018-04-29T21:43:14.876Z,99032.81
2018-04-29T21:45:42.556Z,99036.95
2018-04-29T21:48:10.249Z,99034.33
2018-04-29T21:50:37.914Z,99032.22
2018-04-29T21:53:05.485Z,99034.68
2018-04-29T21:55:33.377Z,99029.73
2018-04-29T21:58:01.112Z,99026.77
2018-04-29T22:00:28.690Z,99029.39
2018-04-29T22:02:56.344Z,99024.76
2018-04-29T22:05:23.923Z,99024.41
2018-04-29T22:07:51.488Z,99023.97
2018-04-29T22:10:19.201Z,99020.75
2018-04-29T22:12:46.883Z,99019.78
2018-04-29T22:15:14.444Z,99009.05
2018-04-29T22:17:42.014Z,99014.42
2018-04-29T22:20:09.576Z,99017.05
2018-04-29T22:22:37.145Z,99023.20
2018-04-29T22:25:04.705Z,99016.44
2018-04-29T22:27:32.284Z,99021.38
2018-04-29T22:30:00.029Z,99017.78
2018-04-29T22:32:27.644Z,99028.19
2018-04-29T22:34:55.287Z,99022.86
2018-04-29T22:37:22.862Z,99022.20
2018-04-29T22:39:50.416Z,99014.75
2018-04-29T22:42:18.025Z,99016.30
2018-04-29T22:44:45.714Z,99019.89
2018-04-29T22:47:13.476Z,99020.96
2018-04-29T22:49:41.072Z,99002.66
2018-04-29T22:52:08.676Z,99010.05
2018-04-29T22:54:36.272Z,99010.94
2018-04-29T22:57:04.125Z,99010.80
2018-04-29T22:59:31.693Z,99003.20
2018-04-29T23:01:59.245Z,99004.09
2018-04-29T23:04:26.874Z,98996.17
2018-04-29T23:06:54.698Z,98996.80
2018-04-29T23:09:22.284Z,99001.98
2018-04-29T23:11:49.945Z,98986.66
2018-04-29T23:14:17.550Z,98987.58
2018-04-29T23:16:45.173Z,98988.06
2018-04-29T23:19:12.733Z,98988.17
2018-04-29T23:21:40.422Z,98982.77
2018-04-29T23:24:07.969Z,98987.19
2018-04-29T23:26:35.641Z,98979.42
2018-04-29T23:29:03.255Z,98981.80
2018-04-29T23:31:30.978Z,98966.16
2018-04-29T23:33:58.712Z,98946.31
2018-04-29T23:36:26.293Z,98972.54
2018-04-29T23:38:53.871Z,98970.95
2018-04-29T23:41:21.626Z,98976.50
2018-04-29T23:43:49.397Z,98964.77
2018-04-29T23:46:16.957Z,98969.14
2018-04-29T23:48:44.684Z,98965.13
2018-04-29T23:51:12.264Z,98963.17
2018-04-29T23:53:39.967Z,98962.03
2018-04-29T23:56:07.591Z,98959.50
2018-04-29T23:58:35.178Z,98961.12
